Weather History for KBKS - December, 2013

Change the Weather History Date:

Saturday, December 21, 2013

  Actual Average (KNQI) Record (KNQI)
Temperature  
Mean Temperature 68 °F -  
Max Temperature 76 °F 65 °F 86 °F (2010)
Min Temperature 61 °F 44 °F 30 °F (2012)
Cooling Degree Days 4    
Growing Degree Days 18 (Base 50)    
Moisture  
Dew Point 63 °F    
Average Humidity 72    
Maximum Humidity 85    
Minimum Humidity 51    
Precipitation  
Precipitation 0.00 in - - ()
Sea Level Pressure  
Sea Level Pressure 29.64 in    
Wind  
Wind Speed 18 mph (SE)    
Max Wind Speed 30 mph    
Max Gust Speed 41 mph    
Visibility 10 miles    
Events      
Averages and records for this station are not official NWS values.
T = Trace of Precipitation, MM = Missing Value Source: NWS Daily Summary

Daily Weather History Graph

Daily Weather History Graph

Search for Another Location

Airport or City:

Trip Planner

Search our weather history database for the weather conditions in past years. The results will help you decide how hot, cold, wet, or windy it might be!

Date:

Astronomy

Dec. 21, 2013 Rise Set
Actual Time 7:18 AM CST 5:43 PM CST
Civil Twilight 6:52 AM CST 6:09 PM CST
Nautical Twilight 6:23 AM CST 6:38 PM CST
Astronomical Twilight 5:54 AM CST 7:06 PM CST
Moon 9:41 PM CST (12/21) 10:02 AM CST (12/21)
Length of Visible Light 11h 16m
Length of Day
10h 25m
Waning Gibbous, 84% of the Moon is Illuminated
Dec 21
Waning Gibbous
Dec 25
Last Quarter
Jan 1
New
Jan 7
First Quarter
Jan 15
Full

Hourly Weather History & Observations

Time (CST) Temp. Dew Point Humidity Pressure Visibility Wind Dir Wind Speed Gust Speed Precip Events Conditions
12:15 AM 75.2 °F 67.5 °F 77% 29.64 in 10.0 mi SSE 27.6 mph 36.8 mph N/A   Overcast
12:35 AM 75.2 °F 67.5 °F 77% 29.63 in 10.0 mi SSE 29.9 mph 41.4 mph N/A   Mostly Cloudy
12:55 AM 75.4 °F 67.3 °F 76% 29.62 in 10.0 mi SSE 25.3 mph 41.4 mph N/A   Overcast
1:15 AM 75.4 °F 67.5 °F 76% 29.61 in 10.0 mi SSE 27.6 mph 35.7 mph N/A   Overcast
1:35 AM 75.4 °F 67.5 °F 76% 29.60 in 10.0 mi SSE 29.9 mph 36.8 mph N/A   Overcast
1:55 AM 75.4 °F 67.3 °F 76% 29.60 in 10.0 mi South 19.6 mph 33.4 mph N/A   Overcast
2:15 AM 75.2 °F 67.5 °F 77% 29.60 in 10.0 mi South 26.5 mph 32.2 mph N/A   Overcast
2:35 AM 75.4 °F 67.5 °F 76% 29.61 in 10.0 mi South 23.0 mph 32.2 mph N/A   Overcast
2:55 AM 75.4 °F 67.6 °F 77% 29.60 in 10.0 mi South 21.9 mph 29.9 mph N/A   Overcast
3:15 AM 75.2 °F 67.5 °F 77% 29.59 in 10.0 mi South 18.4 mph 31.1 mph N/A   Overcast
3:35 AM 75.2 °F 67.5 °F 77% 29.59 in 10.0 mi South 18.4 mph 25.3 mph N/A   Overcast
3:55 AM 75.2 °F 67.5 °F 77% 29.59 in 10.0 mi South 15.0 mph 25.3 mph N/A   Overcast
4:15 AM 75.2 °F 67.6 °F 77% 29.59 in 10.0 mi South 18.4 mph 26.5 mph N/A   Overcast
4:35 AM 75.2 °F 67.5 °F 77% 29.57 in 10.0 mi SSE 26.5 mph 34.5 mph N/A   Overcast
4:55 AM 75.0 °F 67.6 °F 78% 29.58 in 10.0 mi South 17.3 mph 26.5 mph N/A   Overcast
5:15 AM 75.2 °F 67.5 °F 77% 29.57 in 10.0 mi South 19.6 mph 25.3 mph N/A   Overcast
5:35 AM 75.2 °F 67.5 °F 77% 29.57 in 10.0 mi South 17.3 mph 24.2 mph N/A   Overcast
5:55 AM 75.0 °F 67.5 °F 77% 29.57 in 10.0 mi South 13.8 mph - N/A   Overcast
6:15 AM 75.2 °F 67.5 °F 77% 29.58 in 10.0 mi South 16.1 mph 29.9 mph N/A   Overcast
6:35 AM 75.2 °F 67.5 °F 77% 29.58 in 10.0 mi South 16.1 mph - N/A   Overcast
6:55 AM 74.8 °F 67.3 °F 77% 29.58 in 10.0 mi South 16.1 mph 19.6 mph N/A   Overcast
7:15 AM 74.7 °F 67.3 °F 78% 29.57 in 10.0 mi South 23.0 mph 29.9 mph N/A   Mostly Cloudy
7:35 AM 74.5 °F 67.1 °F 78% 29.57 in 10.0 mi South 21.9 mph 27.6 mph N/A   Scattered Clouds
7:55 AM 74.7 °F 67.1 °F 77% 29.58 in 10.0 mi SSE 20.7 mph 27.6 mph N/A   Scattered Clouds
8:15 AM 74.5 °F 67.1 °F 78% 29.58 in 10.0 mi South 17.3 mph 29.9 mph N/A   Scattered Clouds
8:35 AM 74.5 °F 67.1 °F 78% 29.58 in 10.0 mi South 16.1 mph 28.8 mph N/A   Clear
8:55 AM 74.5 °F 67.1 °F 78% 29.58 in 10.0 mi South 20.7 mph 25.3 mph N/A   Clear
9:15 AM 74.7 °F 67.1 °F 77% 29.58 in 10.0 mi South 17.3 mph 26.5 mph N/A   Clear
9:35 AM 75.2 °F 67.1 °F 76% 29.58 in 10.0 mi South 19.6 mph 26.5 mph N/A   Clear
9:55 AM 75.4 °F 67.1 °F 75% 29.59 in 10.0 mi South 21.9 mph 28.8 mph N/A   Clear
10:15 AM 76.1 °F 67.3 °F 74% 29.60 in 10.0 mi South 13.8 mph 27.6 mph N/A   Clear
10:35 AM 76.1 °F 67.1 °F 74% 29.61 in 10.0 mi South 17.3 mph 24.2 mph N/A   Clear
10:55 AM 76.1 °F 66.7 °F 73% 29.62 in 10.0 mi South 18.4 mph 21.9 mph N/A   Clear
11:15 AM 76.1 °F 66.9 °F 73% 29.62 in 10.0 mi SSW 12.7 mph 18.4 mph N/A   Clear
11:35 AM 76.1 °F 66.9 °F 73% 29.63 in 10.0 mi SSW 11.5 mph 16.1 mph N/A   Clear
11:55 AM 76.1 °F 66.6 °F 72% 29.62 in 10.0 mi SSW 11.5 mph 16.1 mph N/A   Clear
12:15 PM 76.1 °F 66.6 °F 72% 29.63 in 10.0 mi SW 9.2 mph - N/A   Clear
12:35 PM 76.3 °F 66.6 °F 72% 29.63 in 10.0 mi West 9.2 mph - N/A   Clear
12:55 PM 76.5 °F 66.6 °F 71% 29.63 in 10.0 mi West 11.5 mph - N/A   Scattered Clouds
1:15 PM 76.5 °F 66.4 °F 71% 29.63 in 10.0 mi West 9.2 mph - N/A   Scattered Clouds
1:35 PM 76.6 °F 65.8 °F 69% 29.62 in 10.0 mi West 6.9 mph - N/A   Mostly Cloudy
1:55 PM 75.6 °F 65.3 °F 70% 29.62 in 10.0 mi NNW 13.8 mph 18.4 mph N/A   Overcast
2:15 PM 75.4 °F 64.0 °F 68% 29.61 in 10.0 mi NW 11.5 mph 17.3 mph N/A   Scattered Clouds
2:35 PM 75.4 °F 63.9 °F 67% 29.61 in 10.0 mi NNW 10.4 mph 18.4 mph N/A   Clear
2:55 PM 74.8 °F 62.1 °F 64% 29.62 in 10.0 mi NNW 10.4 mph - N/A   Clear
3:15 PM 75.6 °F 61.7 °F 62% 29.61 in 10.0 mi North 11.5 mph - N/A   Clear
3:35 PM 75.2 °F 59.5 °F 58% 29.61 in 10.0 mi North 11.5 mph 19.6 mph N/A   Clear
3:55 PM 75.2 °F 58.6 °F 56% 29.62 in 10.0 mi North 9.2 mph - N/A   Clear
4:15 PM 76.5 °F 59.0 °F 55% 29.62 in 10.0 mi NNE 12.7 mph - N/A   Clear
4:35 PM 76.3 °F 58.1 °F 53% 29.63 in 10.0 mi NE 10.4 mph 16.1 mph N/A   Clear
4:55 PM 76.1 °F 56.7 °F 51% 29.63 in 10.0 mi NNE 9.2 mph - N/A   Clear
5:15 PM 75.4 °F 57.2 °F 53% 29.64 in 10.0 mi NE 9.2 mph - N/A   Clear
5:35 PM 74.5 °F 55.6 °F 52% 29.65 in 10.0 mi ENE 6.9 mph - N/A   Clear
5:55 PM 72.5 °F 55.6 °F 55% 29.65 in 10.0 mi ENE 4.6 mph - N/A   Clear
6:15 PM 71.2 °F 57.2 °F 61% 29.66 in 10.0 mi ENE 6.9 mph - N/A   Clear
6:35 PM 70.0 °F 57.2 °F 64% 29.67 in 10.0 mi ENE 4.6 mph - N/A   Clear
6:55 PM 68.5 °F 56.5 °F 65% 29.67 in 10.0 mi ENE 4.6 mph - N/A   Clear
7:15 PM 68.2 °F 56.1 °F 65% 29.69 in 10.0 mi NE 4.6 mph - N/A   Clear
7:35 PM 67.1 °F 56.1 °F 68% 29.70 in 10.0 mi NE 4.6 mph - N/A   Clear
7:55 PM 66.2 °F 55.9 °F 69% 29.71 in 10.0 mi NE 4.6 mph - N/A   Clear
8:15 PM 65.7 °F 55.9 °F 71% 29.72 in 10.0 mi Calm Calm - N/A   Clear
8:35 PM 65.5 °F 55.9 °F 71% 29.74 in 10.0 mi NNE 3.5 mph - N/A   Clear
8:55 PM 64.9 °F 56.1 °F 73% 29.75 in 10.0 mi NE 3.5 mph - N/A   Clear
9:15 PM 64.9 °F 56.3 °F 74% 29.75 in 10.0 mi Calm Calm - N/A   Clear
9:35 PM 64.4 °F 56.3 °F 75% 29.76 in 10.0 mi ENE 4.6 mph - N/A   Clear
9:55 PM 64.4 °F 56.5 °F 75% 29.76 in 10.0 mi ENE 4.6 mph - N/A   Scattered Clouds
10:15 PM 64.0 °F 56.8 °F 77% 29.76 in 10.0 mi NE 4.6 mph - N/A   Scattered Clouds
10:35 PM 63.5 °F 56.8 °F 79% 29.78 in 10.0 mi ENE 3.5 mph - N/A   Scattered Clouds
10:55 PM 63.3 °F 56.7 °F 79% 29.78 in 10.0 mi NE 4.6 mph - N/A   Scattered Clouds
11:15 PM 62.6 °F 56.7 °F 81% 29.79 in 10.0 mi NE 3.5 mph - N/A   Clear
11:35 PM 61.2 °F 56.1 °F 83% 29.79 in 10.0 mi NNE 4.6 mph - N/A   Clear
11:55 PM 61.0 °F 56.5 °F 85% 29.79 in 10.0 mi North 5.8 mph - N/A   Scattered Clouds